Time;durP1;ratioP1;P1;durP2;ratioP2;P2;SDS_P1;SDS_P2;PMS_P1;PMS_P2;Temp;Humidity;BMP_temperature;BMP_pressure;BME280_temperature;BME280_humidity;BME280_pressure;Samples;Min_cycle;Max_cycle;Signal;HPM_P1;HPM_P2
2022/05/20 00:01:37;;;;;;;26.98;16.30;;;12.50;99.90;;;;;;5074741;28;20045;-66
2022/05/20 00:04:03;;;;;;;22.88;16.65;;;12.50;99.90;;;;;;5074497;28;20044;-66
2022/05/20 00:06:28;;;;;;;21.30;17.13;;;12.50;99.90;;;;;;5074730;28;20052;-66
2022/05/20 00:08:54;;;;;;;27.52;16.95;;;12.50;99.90;;;;;;5074699;28;20080;-67
2022/05/20 00:11:20;;;;;;;24.00;17.55;;;12.50;99.90;;;;;;5080406;28;20480;-67
2022/05/20 00:13:46;;;;;;;27.92;19.48;;;12.50;99.90;;;;;;5096434;28;20056;-67
2022/05/20 00:16:12;;;;;;;28.52;19.83;;;12.50;99.90;;;;;;5098205;28;20048;-66
2022/05/20 00:18:38;;;;;;;30.27;20.25;;;12.50;99.90;;;;;;5098317;28;20040;-67
2022/05/20 00:21:04;;;;;;;26.80;18.92;;;12.50;99.90;;;;;;5080878;28;20059;-66
2022/05/20 00:23:29;;;;;;;27.33;19.85;;;12.50;99.90;;;;;;5098529;28;20036;-66
2022/05/20 00:25:55;;;;;;;28.45;19.35;;;12.50;99.90;;;;;;5094453;28;20055;-67
2022/05/20 00:28:24;;;;;;;29.65;21.00;;;12.40;99.90;;;;;;5098190;28;20503;-68
2022/05/20 00:30:56;;;;;;;28.15;19.08;;;12.50;99.90;;;;;;5097943;28;20370;-67
2022/05/20 00:33:23;;;;;;;31.27;20.75;;;12.40;99.90;;;;;;5080612;28;20051;-66
2022/05/20 00:35:49;;;;;;;35.72;22.17;;;12.50;99.90;;;;;;5097581;28;20059;-67
2022/05/20 00:38:15;;;;;;;29.75;20.13;;;12.40;99.90;;;;;;5098165;28;20044;-66
2022/05/20 00:40:42;;;;;;;29.00;21.15;;;12.50;99.90;;;;;;5097990;28;20043;-67
2022/05/20 00:43:30;;;;;;;32.15;22.40;;;12.50;99.90;;;;;;5098213;28;20055;-67
2022/05/20 00:45:59;;;;;;;29.40;22.25;;;12.40;99.90;;;;;;5097852;28;20045;-67
2022/05/20 00:48:26;;;;;;;26.23;19.02;;;12.40;99.90;;;;;;5091090;28;20071;-67
2022/05/20 00:51:23;;;;;;;26.65;19.73;;;12.40;99.90;;;;;;5059716;28;20040;-67
2022/05/20 00:53:55;;;;;;;23.10;19.27;;;12.40;99.90;;;;;;5053932;28;20053;-67
2022/05/20 00:56:25;;;;;;;25.58;18.15;;;12.40;99.90;;;;;;5077614;28;20429;-67
2022/05/20 00:58:52;;;;;;;28.60;19.48;;;12.40;99.90;;;;;;5060495;28;20114;-66
2022/05/20 01:01:19;;;;;;;27.33;19.67;;;12.40;99.90;;;;;;5077649;28;20106;-67
2022/05/20 01:03:46;;;;;;;25.10;18.17;;;12.40;99.90;;;;;;5074033;28;20066;-67
2022/05/20 01:06:11;;;;;;;23.75;17.42;;;12.40;99.90;;;;;;5097797;28;20079;-66
2022/05/20 01:08:39;;;;;;;25.80;18.23;;;12.40;99.90;;;;;;5097486;28;20449;-66
2022/05/20 01:11:04;;;;;;;24.77;17.70;;;12.40;99.90;;;;;;5097827;28;20052;-67
2022/05/20 01:13:31;;;;;;;24.08;18.40;;;12.40;99.90;;;;;;5080092;28;20067;-67
2022/05/20 01:16:02;;;;;;;27.88;17.92;;;12.30;99.90;;;;;;5097340;28;20047;-66
2022/05/20 01:18:31;;;;;;;22.42;17.52;;;12.40;99.90;;;;;;5083002;28;20036;-67
2022/05/20 01:20:57;;;;;;;27.05;17.88;;;12.40;99.90;;;;;;5076930;28;20063;-68
2022/05/20 01:23:26;;;;;;;22.05;17.40;;;12.40;99.90;;;;;;5082645;28;20449;-66
2022/05/20 01:25:54;;;;;;;21.55;16.80;;;12.30;99.90;;;;;;5095811;28;20485;-67
2022/05/20 01:28:23;;;;;;;21.90;16.80;;;12.40;99.90;;;;;;5097039;28;20059;-67
2022/05/20 01:30:55;;;;;;;20.25;16.05;;;12.40;99.90;;;;;;5097585;28;20036;-66
2022/05/20 01:33:42;;;;;;;24.48;17.90;;;12.40;99.90;;;;;;5097409;28;20140;-66
2022/05/20 01:36:13;;;;;;;22.75;17.33;;;12.40;99.90;;;;;;5097059;28;20051;-67
2022/05/20 01:38:38;;;;;;;24.65;17.27;;;12.40;99.90;;;;;;5095113;28;20040;-67
2022/05/20 01:41:08;;;;;;;27.40;17.73;;;12.40;99.90;;;;;;5092190;28;20089;-68
2022/05/20 01:43:40;;;;;;;21.70;16.40;;;12.30;99.90;;;;;;5096855;28;20047;-67
2022/05/20 01:46:17;;;;;;;24.95;16.55;;;12.30;99.90;;;;;;5096902;28;20036;-67
2022/05/20 01:49:07;;;;;;;26.25;17.80;;;12.20;99.90;;;;;;5096702;28;20055;-66
2022/05/20 01:51:42;;;;;;;25.15;16.30;;;12.30;99.90;;;;;;5096914;28;20040;-67
2022/05/20 01:54:16;;;;;;;21.60;17.45;;;12.30;99.90;;;;;;5095569;28;20442;-67
2022/05/20 01:56:47;;;;;;;21.83;16.10;;;12.20;99.90;;;;;;5096714;28;20058;-67
2022/05/20 01:59:40;;;;;;;20.60;15.55;;;12.20;99.90;;;;;;5096644;28;20036;-66
2022/05/20 02:02:11;;;;;;;21.75;16.20;;;12.20;99.90;;;;;;5096485;28;20044;-67
2022/05/20 02:04:49;;;;;;;20.65;16.67;;;12.20;99.90;;;;;;5096756;28;20126;-67
2022/05/20 02:07:24;;;;;;;18.80;15.32;;;12.10;99.90;;;;;;5092740;28;20152;-66
2022/05/20 02:09:59;;;;;;;18.52;16.13;;;12.20;99.90;;;;;;5076161;28;20074;-66
2022/05/20 02:12:28;;;;;;;21.75;15.57;;;12.20;99.90;;;;;;5076164;28;20052;-67
2022/05/20 02:15:17;;;;;;;21.40;16.38;;;12.10;99.90;;;;;;5076186;28;20036;-67
2022/05/20 02:17:47;;;;;;;22.42;16.90;;;12.20;99.90;;;;;;5075845;28;20154;-66
2022/05/20 02:20:24;;;;;;;17.45;15.50;;;12.10;99.90;;;;;;5075816;28;20102;-67
2022/05/20 02:22:54;;;;;;;19.33;15.18;;;12.10;99.90;;;;;;5085016;28;20048;-67
2022/05/20 02:25:28;;;;;;;19.13;14.57;;;12.20;99.90;;;;;;5096364;28;20048;-66
2022/05/20 02:27:58;;;;;;;17.75;14.95;;;12.20;99.90;;;;;;5077973;28;20048;-67
2022/05/20 02:30:28;;;;;;;20.85;17.17;;;12.10;99.90;;;;;;5077981;28;20040;-66
2022/05/20 02:33:16;;;;;;;20.52;16.75;;;12.20;99.90;;;;;;5078015;28;20475;-66
2022/05/20 02:35:42;;;;;;;23.27;17.38;;;12.10;99.90;;;;;;5078060;28;20400;-66
2022/05/20 02:38:09;;;;;;;22.27;17.38;;;12.00;99.90;;;;;;5093661;28;20048;-66
2022/05/20 02:40:36;;;;;;;23.70;16.73;;;12.00;99.90;;;;;;5095536;28;20040;-67
2022/05/20 02:43:01;;;;;;;20.95;16.20;;;12.00;99.90;;;;;;5095724;28;20043;-66
2022/05/20 02:45:27;;;;;;;24.02;17.10;;;12.00;99.90;;;;;;5095591;28;20032;-67
2022/05/20 02:47:52;;;;;;;21.85;17.27;;;12.00;99.90;;;;;;5095706;28;20052;-67
2022/05/20 02:50:18;;;;;;;19.80;16.17;;;12.00;99.90;;;;;;5096016;28;20044;-66
2022/05/20 02:52:44;;;;;;;19.27;16.35;;;11.90;99.90;;;;;;5094526;28;20059;-67
2022/05/20 02:55:11;;;;;;;21.52;17.83;;;12.00;99.90;;;;;;5095416;28;20052;-66
2022/05/20 02:57:37;;;;;;;22.67;17.48;;;12.00;99.90;;;;;;5079299;28;20359;-67
2022/05/20 03:04:09;;;;;;;19.40;15.48;;;11.90;99.90;;;;;;5075351;28;20048;-67
2022/05/20 03:05:55;;;;;;;18.88;15.32;;;11.90;99.90;;;;;;5074285;28;20055;-66
2022/05/20 03:08:21;;;;;;;18.30;16.25;;;11.90;99.90;;;;;;5077404;28;20064;-66
2022/05/20 03:10:47;;;;;;;22.77;16.52;;;11.90;99.90;;;;;;5095434;28;20044;-66
2022/05/20 03:13:13;;;;;;;25.30;18.77;;;11.90;99.90;;;;;;5095164;28;20461;-67
2022/05/20 03:15:40;;;;;;;20.08;17.20;;;11.90;99.90;;;;;;5095592;28;20327;-67
2022/05/20 03:18:10;;;;;;;22.30;17.33;;;11.80;99.90;;;;;;5095239;28;20040;-67
2022/05/20 03:20:38;;;;;;;21.60;17.73;;;11.70;99.90;;;;;;5077381;28;20052;-67
2022/05/20 03:23:05;;;;;;;22.98;18.40;;;11.70;99.90;;;;;;5093293;28;20047;-67
2022/05/20 03:25:31;;;;;;;21.75;17.20;;;11.70;99.90;;;;;;5095130;28;20132;-66
2022/05/20 03:27:57;;;;;;;21.30;16.95;;;11.70;99.90;;;;;;5095224;28;20044;-67
2022/05/20 03:30:23;;;;;;;25.10;18.23;;;11.70;99.90;;;;;;5094877;28;20059;-67
2022/05/20 03:32:49;;;;;;;23.48;18.65;;;11.60;99.90;;;;;;5094978;28;20040;-66
2022/05/20 03:35:15;;;;;;;23.27;16.55;;;11.70;99.90;;;;;;5085188;28;20439;-66
2022/05/20 03:37:40;;;;;;;23.42;18.55;;;11.70;99.90;;;;;;5095001;28;20043;-67
2022/05/20 03:40:06;;;;;;;22.73;18.27;;;11.70;99.90;;;;;;5095182;28;20048;-66
2022/05/20 03:42:32;;;;;;;31.52;20.83;;;11.60;99.90;;;;;;5095094;28;20098;-66
2022/05/20 03:44:58;;;;;;;24.98;19.52;;;11.60;99.90;;;;;;5094711;28;20374;-66
2022/05/20 03:47:24;;;;;;;25.00;19.92;;;11.70;99.90;;;;;;5077267;28;20130;-66
2022/05/20 03:49:49;;;;;;;22.40;19.38;;;11.60;99.90;;;;;;5096269;28;20039;-66
2022/05/20 03:52:15;;;;;;;25.08;19.30;;;11.70;99.90;;;;;;5099300;28;20062;-68
2022/05/20 03:54:42;;;;;;;28.02;20.67;;;11.60;99.90;;;;;;5099078;28;20036;-66
2022/05/20 03:57:08;;;;;;;24.60;20.60;;;11.70;99.90;;;;;;5081566;28;20059;-67
2022/05/20 03:59:36;;;;;;;28.42;22.20;;;11.70;99.90;;;;;;5098696;28;20044;-67
2022/05/20 04:02:07;;;;;;;30.58;22.38;;;11.80;99.90;;;;;;5098802;28;20054;-66
2022/05/20 04:04:39;;;;;;;32.75;23.48;;;11.70;99.90;;;;;;5097784;28;20047;-66
2022/05/20 04:07:08;;;;;;;27.70;22.60;;;11.80;99.90;;;;;;5098731;28;20054;-66
2022/05/20 04:09:34;;;;;;;31.75;23.63;;;11.80;99.90;;;;;;5098579;28;20048;-66
2022/05/20 04:12:03;;;;;;;27.42;21.23;;;11.80;99.90;;;;;;5098837;28;20059;-67
2022/05/20 04:14:31;;;;;;;30.23;22.75;;;11.80;99.90;;;;;;5098879;28;20048;-66
2022/05/20 04:16:57;;;;;;;32.67;24.00;;;11.80;99.90;;;;;;5098546;28;20123;-66
2022/05/20 04:19:29;;;;;;;26.85;20.88;;;11.80;99.90;;;;;;5087120;28;20048;-66
2022/05/20 04:21:58;;;;;;;27.17;23.05;;;11.80;99.90;;;;;;5084230;28;20058;-67
2022/05/20 04:24:24;;;;;;;25.95;21.08;;;11.80;99.90;;;;;;5098706;28;20079;-66
2022/05/20 04:26:49;;;;;;;25.90;20.80;;;11.90;99.90;;;;;;5098165;28;20082;-66
2022/05/20 04:29:15;;;;;;;25.13;19.95;;;11.80;99.90;;;;;;5098346;28;20060;-67
2022/05/20 04:31:46;;;;;;;25.45;20.63;;;11.80;99.90;;;;;;5098253;28;20094;-66
2022/05/20 04:34:12;;;;;;;25.20;20.95;;;11.70;99.90;;;;;;5096733;28;20085;-66
2022/05/20 04:36:38;;;;;;;25.00;20.20;;;11.70;99.90;;;;;;5081644;28;20055;-66
2022/05/20 04:39:03;;;;;;;23.45;20.17;;;11.70;99.90;;;;;;5078022;28;20059;-66
2022/05/20 04:46:59;;;;;;;27.98;21.30;;;11.60;99.90;;;;;;5083732;28;20047;-67
2022/05/20 04:49:27;;;;;;;24.02;20.15;;;11.60;99.90;;;;;;5098108;28;20048;-66
2022/05/20 04:51:52;;;;;;;27.50;21.38;;;11.60;99.90;;;;;;5097825;28;20040;-66
2022/05/20 04:57:04;;;;;;;30.52;21.42;;;11.60;99.90;;;;;;5097784;28;20420;-66
2022/05/20 04:59:34;;;;;;;24.45;20.70;;;11.70;99.90;;;;;;5080203;28;20059;-66
2022/05/20 05:02:00;;;;;;;28.63;22.33;;;11.70;99.90;;;;;;5097012;28;20046;-66
2022/05/20 05:04:26;;;;;;;25.38;21.55;;;11.80;99.90;;;;;;5079044;28;20052;-66
2022/05/20 05:06:52;;;;;;;27.33;22.58;;;11.70;99.90;;;;;;5079933;28;20434;-67
2022/05/20 05:09:18;;;;;;;29.10;23.98;;;11.80;99.90;;;;;;5097772;28;20146;-66
2022/05/20 05:11:43;;;;;;;24.55;21.10;;;11.80;99.90;;;;;;5079907;28;20084;-65
2022/05/20 05:14:12;;;;;;;26.67;22.35;;;11.80;99.90;;;;;;5079201;28;20047;-65
2022/05/20 05:16:38;;;;;;;33.70;22.85;;;11.90;99.90;;;;;;5096599;28;20040;-65
2022/05/20 05:19:04;;;;;;;28.50;22.02;;;12.00;99.90;;;;;;5097264;28;20148;-66
2022/05/20 05:21:29;;;;;;;30.02;22.20;;;12.00;99.90;;;;;;5097366;28;20085;-65
2022/05/20 05:23:55;;;;;;;35.28;23.05;;;12.00;99.90;;;;;;5097335;28;20067;-66
2022/05/20 05:26:22;;;;;;;28.58;21.13;;;12.10;99.90;;;;;;5097210;28;20153;-64
2022/05/20 05:28:47;;;;;;;31.70;21.33;;;12.10;99.90;;;;;;5088582;28;20040;-66
2022/05/20 05:31:13;;;;;;;27.90;20.52;;;12.10;99.90;;;;;;5077036;28;20048;-66
2022/05/20 05:33:38;;;;;;;26.35;19.60;;;12.10;99.90;;;;;;5076839;28;20363;-65
2022/05/20 05:36:04;;;;;;;22.80;20.42;;;12.20;99.90;;;;;;5077412;28;20442;-66
2022/05/20 05:38:29;;;;;;;22.55;18.75;;;12.20;99.90;;;;;;5086009;28;20048;-65
2022/05/20 05:40:55;;;;;;;26.88;20.95;;;12.20;99.90;;;;;;5097112;28;20044;-66
2022/05/20 05:43:21;;;;;;;24.23;18.73;;;12.30;99.90;;;;;;5096994;28;20048;-65
2022/05/20 05:45:47;;;;;;;21.73;17.80;;;12.30;99.90;;;;;;5078908;28;20047;-66
2022/05/20 05:48:15;;;;;;;22.67;17.83;;;12.40;99.90;;;;;;5096800;28;20044;-66
2022/05/20 05:50:41;;;;;;;23.38;17.33;;;12.40;99.90;;;;;;5094975;28;20484;-66
2022/05/20 05:53:15;;;;;;;29.20;16.55;;;12.40;99.90;;;;;;5096473;28;20058;-66
2022/05/20 05:55:43;;;;;;;21.75;16.73;;;12.60;99.90;;;;;;5095235;28;20502;-66
2022/05/20 05:58:09;;;;;;;21.92;15.30;;;12.60;99.90;;;;;;5078751;28;20408;-66
2022/05/20 06:00:36;;;;;;;18.25;13.43;;;12.70;99.90;;;;;;5096492;28;20040;-67
2022/05/20 06:03:02;;;;;;;19.85;13.82;;;12.80;99.90;;;;;;5096448;28;20135;-67
2022/05/20 06:05:28;;;;;;;18.58;13.38;;;12.90;99.90;;;;;;5095826;28;20074;-68
2022/05/20 06:07:55;;;;;;;19.33;11.30;;;13.00;99.90;;;;;;5093139;28;20500;-67
2022/05/20 06:10:20;;;;;;;16.05;9.52;;;13.10;99.90;;;;;;5096434;28;20048;-66
2022/05/20 06:12:47;;;;;;;8.90;4.55;;;13.00;99.90;;;;;;5096082;28;20196;-67
2022/05/20 06:15:16;;;;;;;9.77;4.85;;;13.00;99.90;;;;;;5096103;28;20048;-67
2022/05/20 06:17:41;;;;;;;12.75;6.15;;;13.20;99.90;;;;;;5078634;28;20520;-66
2022/05/20 06:20:07;;;;;;;8.25;5.90;;;13.40;99.90;;;;;;5094908;28;20105;-67
2022/05/20 06:22:33;;;;;;;14.20;6.78;;;13.30;99.90;;;;;;5093153;28;20093;-66
2022/05/20 06:24:59;;;;;;;13.68;6.90;;;13.40;99.90;;;;;;5096282;28;20425;-67
2022/05/20 06:27:25;;;;;;;16.80;7.90;;;13.50;99.90;;;;;;5095350;28;20407;-67
2022/05/20 06:29:51;;;;;;;15.20;9.13;;;13.50;99.90;;;;;;5077855;28;20044;-68
2022/05/20 06:32:17;;;;;;;14.65;7.60;;;13.60;99.90;;;;;;5095822;28;20085;-67
2022/05/20 06:40:15;;;;;;;14.98;8.15;;;13.80;99.90;;;;;;5095499;28;20377;-67
2022/05/20 06:42:42;;;;;;;12.07;7.95;;;13.80;99.90;;;;;;5093905;28;20036;-67
2022/05/20 06:45:12;;;;;;;15.00;8.88;;;14.00;99.90;;;;;;5078201;28;20096;-67
2022/05/20 06:47:37;;;;;;;18.42;9.73;;;14.10;99.90;;;;;;5095746;28;20040;-66
2022/05/20 06:50:04;;;;;;;19.23;9.05;;;14.10;99.90;;;;;;5077910;28;20066;-67
2022/05/20 06:52:29;;;;;;;13.15;8.30;;;14.20;99.90;;;;;;5095706;28;20056;-67
2022/05/20 06:54:55;;;;;;;13.45;7.90;;;14.10;99.90;;;;;;5077463;28;20117;-66
2022/05/20 06:57:24;;;;;;;12.32;7.72;;;14.30;99.90;;;;;;5094564;28;20051;-67
2022/05/20 06:59:50;;;;;;;12.25;7.88;;;14.30;99.90;;;;;;5095678;28;20090;-67
2022/05/20 07:02:16;;;;;;;16.73;7.85;;;14.50;99.90;;;;;;5077699;28;20075;-67
2022/05/20 07:04:41;;;;;;;12.43;8.02;;;14.50;99.90;;;;;;5095314;28;20449;-68
2022/05/20 07:07:07;;;;;;;13.18;8.38;;;14.70;99.90;;;;;;5095433;28;20047;-67
2022/05/20 07:09:33;;;;;;;11.35;7.60;;;14.80;99.90;;;;;;5095274;28;20056;-66
2022/05/20 07:11:59;;;;;;;10.23;6.18;;;14.80;99.90;;;;;;5086734;28;20393;-67
2022/05/20 07:14:24;;;;;;;9.10;5.93;;;15.00;99.90;;;;;;5074910;28;20052;-67
2022/05/20 07:16:50;;;;;;;11.93;5.97;;;15.00;99.90;;;;;;5075293;28;20343;-68
2022/05/20 07:19:16;;;;;;;9.85;6.07;;;15.20;99.90;;;;;;5074939;28;20101;-68
2022/05/20 07:21:42;;;;;;;9.73;5.40;;;15.40;99.90;;;;;;5074850;28;20119;-67
2022/05/20 07:24:08;;;;;;;9.98;6.30;;;15.50;99.90;;;;;;5073914;28;20502;-67
2022/05/20 07:26:35;;;;;;;6.70;4.68;;;15.50;99.90;;;;;;5074633;28;20472;-67
2022/05/20 07:29:00;;;;;;;9.77;5.50;;;15.40;99.90;;;;;;5061369;28;20044;-67
2022/05/20 07:31:26;;;;;;;9.57;6.00;;;15.50;99.90;;;;;;5075670;28;20453;-67
2022/05/20 07:33:53;;;;;;;10.63;5.68;;;15.60;99.90;;;;;;5074893;28;20197;-67
2022/05/20 07:36:19;;;;;;;10.05;5.05;;;15.60;99.90;;;;;;5075205;28;20135;-68
2022/05/20 07:38:45;;;;;;;11.57;5.57;;;16.00;99.90;;;;;;5074549;28;20052;-67
2022/05/20 07:41:11;;;;;;;13.90;6.50;;;16.00;99.90;;;;;;5079414;28;20040;-68
2022/05/20 07:43:37;;;;;;;14.27;6.20;;;16.20;99.90;;;;;;5093973;28;20047;-68
2022/05/20 07:46:03;;;;;;;11.57;6.20;;;16.30;99.90;;;;;;5081187;28;20048;-68
2022/05/20 07:48:28;;;;;;;13.73;7.30;;;16.30;99.90;;;;;;5080933;28;20056;-68
2022/05/20 07:50:58;;;;;;;12.23;6.00;;;16.30;99.90;;;;;;5080834;28;20113;-70
2022/05/20 07:53:33;;;;;;;10.38;6.60;;;16.40;99.90;;;;;;5081659;28;20386;-67
2022/05/20 07:56:24;;;;;;;;;;;16.50;99.90;;;;;;5082005;28;20040;-69
2022/05/20 07:59:04;;;;;;;11.40;7.03;;;16.30;99.90;;;;;;5076698;28;19954;-67
2022/05/20 08:01:33;;;;;;;10.55;6.40;;;16.30;99.90;;;;;;5080340;28;20549;-67
2022/05/20 08:06:51;;;;;;;11.18;6.82;;;16.40;99.90;;;;;;5080862;28;20079;-68
2022/05/20 08:09:17;;;;;;;13.13;7.60;;;16.30;99.90;;;;;;5081960;28;20044;-67
2022/05/20 08:11:43;;;;;;;12.40;7.93;;;16.40;99.90;;;;;;5081608;28;20086;-69
2022/05/20 08:14:08;;;;;;;16.38;7.78;;;16.50;99.90;;;;;;5076981;28;20138;-69
2022/05/20 08:16:34;;;;;;;13.90;8.32;;;16.60;99.90;;;;;;5074361;28;20051;-69
2022/05/20 08:18:59;;;;;;;11.38;8.60;;;16.70;99.90;;;;;;5084161;28;20115;-68
2022/05/20 08:21:25;;;;;;;13.27;8.30;;;16.80;99.90;;;;;;5080959;28;20454;-68
2022/05/20 08:23:50;;;;;;;11.77;8.80;;;16.90;99.90;;;;;;5081444;28;20032;-69
2022/05/20 08:26:18;;;;;;;14.80;8.70;;;17.00;99.90;;;;;;5080125;28;20040;-66
2022/05/20 08:28:44;;;;;;;15.38;9.27;;;17.10;99.90;;;;;;5080680;28;20125;-67
2022/05/20 08:31:11;;;;;;;14.55;9.15;;;17.00;99.90;;;;;;5081103;28;20075;-67
2022/05/20 08:33:37;;;;;;;11.75;8.90;;;17.10;99.90;;;;;;5081560;28;20089;-70
2022/05/20 08:36:03;;;;;;;11.35;7.32;;;17.10;99.90;;;;;;5083379;28;20056;-70
2022/05/20 08:38:30;;;;;;;10.25;7.32;;;17.00;99.90;;;;;;5085215;28;20044;-72
2022/05/20 08:40:57;;;;;;;10.65;6.63;;;16.90;99.90;;;;;;5084690;28;20048;-71
2022/05/20 08:43:26;;;;;;;10.65;6.47;;;16.90;99.90;;;;;;5084583;28;20040;-72
2022/05/20 08:45:52;;;;;;;11.52;6.53;;;17.00;99.90;;;;;;5084827;28;20063;-72
2022/05/20 08:48:18;;;;;;;12.77;6.70;;;17.00;99.90;;;;;;5085096;28;20032;-73
2022/05/20 08:50:46;;;;;;;9.75;6.78;;;17.10;99.90;;;;;;5083988;28;20048;-72
2022/05/20 08:53:26;;;;;;;10.68;6.72;;;17.10;99.90;;;;;;5065520;28;20060;-72
2022/05/20 08:56:01;;;;;;;8.55;7.15;;;17.10;99.90;;;;;;5084918;28;20055;-72
2022/05/20 08:58:27;;;;;;;9.85;6.25;;;17.10;99.90;;;;;;5076672;28;20043;-72
2022/05/20 09:00:52;;;;;;;9.73;6.85;;;17.00;99.90;;;;;;5077047;28;20127;-71
2022/05/20 09:03:18;;;;;;;10.25;6.28;;;17.10;99.90;;;;;;5077259;28;20048;-71
2022/05/20 09:05:46;;;;;;;10.45;6.50;;;17.10;99.90;;;;;;5077285;28;20044;-72
2022/05/20 09:08:17;;;;;;;11.85;7.45;;;17.30;99.90;;;;;;5077025;28;20044;-71
2022/05/20 09:10:46;;;;;;;13.10;6.90;;;17.40;99.90;;;;;;5085828;28;20063;-69
2022/05/20 09:16:16;;;;;;;10.18;6.43;;;17.60;99.90;;;;;;5097210;28;20048;-69
2022/05/20 09:18:44;;;;;;;9.20;6.32;;;17.60;99.90;;;;;;5079206;28;20048;-69
2022/05/20 09:21:59;;;;;;;9.52;6.38;;;17.80;99.90;;;;;;5097038;28;20044;-70
2022/05/20 09:24:25;;;;;;;11.73;7.40;;;17.90;99.90;;;;;;4994375;28;20056;-69
2022/05/20 09:27:01;;;;;;;11.02;7.15;;;17.90;99.90;;;;;;4985019;28;20047;-68
2022/05/20 09:29:30;;;;;;;9.82;6.57;;;18.10;99.90;;;;;;5037333;28;20131;-68
2022/05/20 09:32:03;;;;;;;7.47;6.55;;;18.10;99.90;;;;;;5076742;28;20079;-68
2022/05/20 09:34:39;;;;;;;12.50;6.50;;;18.20;99.90;;;;;;5073752;28;20135;-68
2022/05/20 09:37:18;;;;;;;9.68;6.68;;;18.20;99.90;;;;;;5076186;28;20056;-70
2022/05/20 09:39:47;;;;;;;9.73;6.40;;;18.00;99.90;;;;;;5084689;28;20477;-68
2022/05/20 09:42:19;;;;;;;11.10;6.22;;;17.80;99.90;;;;;;5081107;28;20037;-68
2022/05/20 09:44:48;;;;;;;9.20;6.65;;;17.80;99.90;;;;;;5082727;28;20040;-67
2022/05/20 09:47:37;;;;;;;11.77;7.80;;;17.80;99.90;;;;;;5082068;28;20075;-70
2022/05/20 09:50:35;;;;;;;13.18;8.18;;;17.70;99.90;;;;;;5083143;28;20048;-70
2022/05/20 09:53:03;;;;;;;14.10;7.80;;;17.70;99.90;;;;;;5050236;28;20044;-70
2022/05/20 09:55:44;;;;;;;11.57;7.47;;;17.70;99.90;;;;;;5081973;28;20453;-71
2022/05/20 09:58:20;;;;;;;10.07;8.38;;;17.70;99.90;;;;;;5082991;28;20465;-70
2022/05/20 10:00:53;;;;;;;12.30;8.48;;;17.60;99.90;;;;;;5083564;28;20052;-68
2022/05/20 10:03:32;;;;;;;11.90;8.27;;;17.60;99.90;;;;;;5083104;28;20048;-71
2022/05/20 10:06:43;;;;;;;12.57;8.75;;;17.60;99.90;;;;;;5083500;28;20048;-71
2022/05/20 10:09:15;;;;;;;12.32;7.55;;;17.50;99.90;;;;;;5076816;28;20056;-70
2022/05/20 10:11:55;;;;;;;11.30;7.07;;;17.60;99.90;;;;;;5083393;28;20040;-71
2022/05/20 10:14:40;;;;;;;11.45;6.50;;;17.60;99.90;;;;;;5076188;28;20078;-70
2022/05/20 10:17:46;;;;;;;11.00;7.05;;;17.60;99.90;;;;;;5075055;28;20466;-70
2022/05/20 10:20:17;;;;;;;10.77;6.50;;;17.50;99.90;;;;;;5080074;28;20085;-70
2022/05/20 10:22:49;;;;;;;11.48;6.13;;;17.50;99.90;;;;;;5082204;28;20497;-71
2022/05/20 10:25:18;;;;;;;10.02;5.65;;;17.50;99.90;;;;;;5065330;28;20497;-71
2022/05/20 10:34:02;;;;;;;13.82;6.93;;;17.60;99.90;;;;;;5081910;28;20059;-69
2022/05/20 10:36:54;;;;;;;10.60;7.60;;;17.40;99.90;;;;;;5082315;28;20040;-69
2022/05/20 10:39:57;;;;;;;13.48;8.15;;;17.50;99.90;;;;;;5083108;28;20102;-69
2022/05/20 10:42:41;;;;;;;13.25;8.50;;;17.40;99.90;;;;;;5081850;28;20182;-68
2022/05/20 10:51:08;;;;;;;9.48;6.47;;;17.40;99.90;;;;;;5081240;28;20470;-69
2022/05/20 10:53:59;;;;;;;9.00;6.93;;;17.50;99.90;;;;;;5081704;28;20048;-68
2022/05/20 10:56:33;;;;;;;9.45;6.50;;;17.50;99.90;;;;;;5081812;28;20043;-67
2022/05/20 10:59:05;;;;;;;10.70;6.20;;;17.50;99.90;;;;;;5082962;28;20036;-68
2022/05/20 11:01:49;;;;;;;10.80;7.72;;;17.50;99.90;;;;;;5082080;28;20040;-70
2022/05/20 11:04:36;;;;;;;8.52;6.13;;;17.50;99.90;;;;;;5081509;28;20086;-70
2022/05/20 11:07:23;;;;;;;8.82;7.05;;;17.50;99.90;;;;;;5081951;28;20051;-68
2022/05/20 11:10:13;;;;;;;9.40;7.00;;;17.60;99.90;;;;;;5082119;28;20355;-68
2022/05/20 11:12:59;;;;;;;10.63;7.88;;;17.50;99.90;;;;;;5083300;28;20045;-70
2022/05/20 11:16:01;;;;;;;9.90;6.80;;;17.50;99.90;;;;;;5082101;28;20055;-69
2022/05/20 11:18:46;;;;;;;11.63;6.50;;;17.70;99.90;;;;;;5081977;28;20063;-68
2022/05/20 11:21:20;;;;;;;8.77;6.22;;;17.80;99.90;;;;;;5080592;28;20089;-69
2022/05/20 11:23:54;;;;;;;8.75;6.45;;;17.80;99.90;;;;;;5053175;28;20040;-67
2022/05/20 11:26:38;;;;;;;9.60;5.78;;;18.00;99.90;;;;;;5066979;28;20397;-68
2022/05/20 11:29:37;;;;;;;9.07;4.30;;;18.00;99.90;;;;;;5080547;28;20040;-67
2022/05/20 11:32:10;;;;;;;11.68;5.70;;;18.10;99.90;;;;;;5081916;28;20053;-70
2022/05/20 11:34:57;;;;;;;9.30;5.25;;;18.10;99.90;;;;;;5082456;28;20051;-67
2022/05/20 11:37:29;;;;;;;7.53;5.50;;;18.20;99.90;;;;;;5083023;28;20109;-68
2022/05/20 11:40:17;;;;;;;7.20;5.13;;;18.20;99.90;;;;;;5080778;28;20128;-70
2022/05/20 11:43:01;;;;;;;9.02;5.65;;;18.20;99.90;;;;;;5080301;28;20289;-69
2022/05/20 11:45:45;;;;;;;;;;;18.20;99.90;;;;;;5087154;28;20051;-67
2022/05/20 11:48:25;;;;;;;10.00;6.40;;;18.30;99.90;;;;;;5077674;28;19927;-68
2022/05/20 11:51:19;;;;;;;8.00;5.32;;;18.30;99.90;;;;;;5086436;28;20048;-69
2022/05/20 11:54:16;;;;;;;9.70;6.45;;;18.40;99.90;;;;;;5077097;28;20068;-67
2022/05/20 11:56:53;;;;;;;9.57;6.75;;;18.50;99.90;;;;;;5094805;28;20043;-68
2022/05/20 11:59:27;;;;;;;9.77;6.30;;;18.50;99.90;;;;;;5094662;28;20127;-69
2022/05/20 12:01:55;;;;;;;;;;;18.50;99.90;;;;;;5095163;28;20055;-68
2022/05/20 12:04:24;;;;;;;9.48;6.78;;;18.50;99.90;;;;;;5093528;28;20234;-68
2022/05/20 12:07:08;;;;;;;8.35;5.75;;;18.50;99.90;;;;;;5087158;28;20108;-68
2022/05/20 12:09:48;;;;;;;12.27;6.47;;;18.60;99.90;;;;;;5095844;28;20081;-67
2022/05/20 12:12:20;;;;;;;8.60;5.70;;;18.50;99.90;;;;;;5098681;28;20101;-67
2022/05/20 12:15:01;;;;;;;8.85;6.15;;;18.50;99.90;;;;;;5098397;28;20450;-68
2022/05/20 12:17:36;;;;;;;8.50;6.32;;;18.50;99.90;;;;;;5098514;28;20123;-68
2022/05/20 12:26:03;;;;;;;10.10;5.70;;;18.30;99.90;;;;;;5098336;28;20131;-67
2022/05/20 12:28:36;;;;;;;;;;;18.10;99.90;;;;;;5098705;28;20461;-68
2022/05/20 12:31:31;;;;;;;8.93;5.00;;;18.00;99.90;;;;;;5097983;28;19920;-68
2022/05/20 12:34:27;;;;;;;7.85;6.63;;;18.00;99.90;;;;;;5098287;28;20051;-68
2022/05/20 12:36:52;;;;;;;9.38;6.75;;;17.90;99.90;;;;;;5097218;28;20098;-68
2022/05/20 12:39:20;;;;;;;9.98;7.10;;;17.80;99.90;;;;;;5075127;28;20072;-67
2022/05/20 12:41:49;;;;;;;12.48;6.55;;;17.90;99.90;;;;;;5089065;28;20044;-68
2022/05/20 12:44:17;;;;;;;9.75;7.20;;;17.90;99.90;;;;;;5098222;28;20116;-68
2022/05/20 12:47:04;;;;;;;12.18;7.63;;;17.90;99.90;;;;;;5079874;28;20048;-68
2022/05/20 12:49:41;;;;;;;10.18;7.88;;;17.90;99.90;;;;;;5098174;28;20328;-68
2022/05/20 12:52:20;;;;;;;9.18;7.35;;;17.90;99.90;;;;;;5097888;28;20047;-67
2022/05/20 12:54:56;;;;;;;10.75;7.25;;;18.00;99.90;;;;;;5097916;28;20350;-67
2022/05/20 12:57:29;;;;;;;9.60;7.20;;;17.90;99.90;;;;;;5097872;28;20050;-67
2022/05/20 12:59:58;;;;;;;10.20;6.63;;;17.90;99.90;;;;;;5077623;28;20048;-68
2022/05/20 13:02:29;;;;;;;10.05;7.40;;;17.80;99.90;;;;;;5077403;28;20040;-68
2022/05/20 13:05:00;;;;;;;9.10;8.18;;;17.80;99.90;;;;;;5076789;28;20118;-68
2022/05/20 13:07:26;;;;;;;10.75;8.13;;;17.70;99.90;;;;;;5077244;28;20056;-68
2022/05/20 13:09:52;;;;;;;9.38;7.25;;;17.60;99.90;;;;;;5077515;28;20053;-68
2022/05/20 13:12:21;;;;;;;10.38;8.30;;;17.50;99.90;;;;;;5077446;28;20055;-67
2022/05/20 13:14:57;;;;;;;10.80;8.77;;;17.50;99.90;;;;;;5080243;28;20066;-67
2022/05/20 13:17:23;;;;;;;10.82;9.25;;;17.40;99.90;;;;;;5097317;28;20180;-68
2022/05/20 13:19:53;;;;;;;11.07;8.15;;;17.30;99.90;;;;;;5097418;28;20060;-68
2022/05/20 13:22:23;;;;;;;12.75;8.95;;;17.30;99.90;;;;;;5095996;28;20135;-68
2022/05/20 13:24:54;;;;;;;10.85;8.32;;;17.20;99.90;;;;;;5097419;28;20124;-67
2022/05/20 13:27:21;;;;;;;11.18;8.30;;;17.10;99.90;;;;;;5096966;28;20457;-68
2022/05/20 13:29:48;;;;;;;9.60;8.32;;;17.00;99.90;;;;;;5097200;28;20054;-67
2022/05/20 13:32:18;;;;;;;10.68;9.18;;;16.90;99.90;;;;;;5096649;28;20044;-67
2022/05/20 13:34:47;;;;;;;19.23;11.13;;;16.90;99.90;;;;;;5097123;28;20040;-66
2022/05/20 13:37:15;;;;;;;11.95;10.65;;;16.90;99.90;;;;;;5096660;28;20497;-67